CGV6 weather

Grand Valley (Martin Field)
Ontario, Canada

Public forecast

Using degrees Celsius for public forecast. Weather courtesy of forecast.io.

METAR (pilot weather report)

Closest report is Waterloo Airport, 25.2 nm (46.7 km) S. Retrieved 2019/05/24 11:00 UTC (27 minutes ago):

CYKF 241100Z AUTO 32007KT 9SM CLR 10/08 A3007 RMK SLP186

TAF (pilot weather forecast)

Closest forecast is Waterloo Airport, 25.2 nm (46.7 km) S. Retrieved 2019/05/24 08:48 UTC (3 hours ago):

TAF TAF CYKF 240745Z 2408/2420 30007KT P6SM BKN015 FM240900 31006KT 6SM BR BKN010 TEMPO 2409/2413 3SM BR OVC008 PROB30 2409/2412 1SM BR OVC004 FM241300 33010KT P6SM BKN015 TEMPO 2413/2417 SCT015 FM241700 33007KT P6SM FEW020 BKN030 RMK FCST BASED ON AUTO OBS. NXT FCST BY 241400Z